Time;durP1;ratioP1;P1;durP2;ratioP2;P2;SDS_P1;SDS_P2;PMS_P1;PMS_P2;Temp;Humidity;BMP_temperature;BMP_pressure;BME280_temperature;BME280_humidity;BME280_pressure;Samples;Min_cycle;Max_cycle;Signal;HPM_P1;HPM_P2
2023/07/17 00:01:16;;;;;;;0.00;0.00;;;;;;;15.30;73.41;100513.19;7349519;19;20925;-67
2023/07/17 00:03:41;;;;;;;0.05;0.05;;;;;;;15.15;73.34;100492.81;7350961;19;20016;-67
2023/07/17 00:06:07;;;;;;;0.10;0.10;;;;;;;15.25;72.82;100504.63;7349185;19;20010;-67
2023/07/17 00:08:32;;;;;;;0.00;0.00;;;;;;;15.25;71.97;100504.63;7349286;19;20081;-67
2023/07/17 00:10:58;;;;;;;0.00;0.00;;;;;;;15.23;72.82;100511.75;7354050;19;20134;-67
2023/07/17 00:13:24;;;;;;;0.10;0.10;;;;;;;15.22;73.42;100503.94;7356015;19;20010;-67
2023/07/17 00:15:49;;;;;;;0.10;0.10;;;;;;;15.20;72.91;100514.50;7355953;19;20018;-67
2023/07/17 00:18:14;;;;;;;0.08;0.08;;;;;;;15.18;72.85;100511.09;7353848;19;20108;-67
2023/07/17 00:20:40;;;;;;;0.10;0.10;;;;;;;15.16;72.90;100515.59;7358241;19;20020;-67
2023/07/17 00:23:06;;;;;;;0.10;0.10;;;;;;;15.13;72.61;100505.19;7355178;19;20010;-67
2023/07/17 00:25:31;;;;;;;0.00;0.00;;;;;;;15.11;72.84;100512.31;7353998;19;20351;-67
2023/07/17 00:27:57;;;;;;;0.10;0.10;;;;;;;15.07;73.04;100516.00;7353178;19;20014;-67
2023/07/17 00:30:22;;;;;;;0.10;0.10;;;;;;;15.04;73.55;100514.34;7354979;19;20003;-67
2023/07/17 00:32:48;;;;;;;0.10;0.10;;;;;;;15.00;73.26;100511.91;7353077;19;20034;-67
2023/07/17 00:35:13;;;;;;;0.10;0.10;;;;;;;14.99;73.79;100510.22;7349524;19;20011;-67
2023/07/17 00:37:38;;;;;;;0.10;0.10;;;;;;;14.96;73.71;100518.25;7353390;19;20451;-66
2023/07/17 00:40:07;;;;;;;0.10;0.10;;;;;;;14.94;73.65;100520.09;7354324;19;20042;-67
2023/07/17 00:42:32;;;;;;;0.10;0.10;;;;;;;14.90;73.51;100513.25;7355287;19;20788;-67
2023/07/17 00:44:58;;;;;;;0.00;0.00;;;;;;;14.90;73.40;100529.00;7356174;19;20175;-67
2023/07/17 00:47:23;;;;;;;0.00;0.00;;;;;;;14.88;73.64;100526.47;7350142;19;20366;-67
2023/07/17 00:49:49;;;;;;;0.10;0.10;;;;;;;14.87;73.29;100526.53;7355392;19;20007;-67
2023/07/17 00:52:16;;;;;;;0.00;0.00;;;;;;;14.86;73.25;100532.72;7355363;19;20819;-67
2023/07/17 00:54:42;;;;;;;0.10;0.10;;;;;;;14.85;73.80;100531.00;7355104;19;20018;-67
2023/07/17 00:57:09;;;;;;;0.10;0.10;;;;;;;14.83;73.81;100530.22;7354276;19;20689;-67
2023/07/17 00:59:35;;;;;;;0.00;0.00;;;;;;;14.83;73.42;100535.47;7352676;19;20043;-66
2023/07/17 01:02:01;;;;;;;0.10;0.10;;;;;;;14.71;73.64;100518.47;7355462;19;20010;-67
2023/07/17 01:04:27;;;;;;;0.10;0.10;;;;;;;14.82;74.13;100536.41;7352791;19;20031;-66
2023/07/17 01:06:52;;;;;;;0.10;0.10;;;;;;;14.71;74.05;100524.56;7352043;19;20026;-67
2023/07/17 01:09:18;;;;;;;0.10;0.10;;;;;;;14.82;74.18;100542.50;7352938;19;20431;-67
2023/07/17 01:11:43;;;;;;;0.10;0.10;;;;;;;14.83;74.06;100543.34;7355365;19;20475;-67
2023/07/17 01:14:16;;;;;;;0.10;0.10;;;;;;;14.85;73.41;100541.50;7353819;19;20002;-66
2023/07/17 01:16:43;;;;;;;0.10;0.10;;;;;;;14.85;73.73;100541.50;7355702;19;20015;-67
2023/07/17 01:19:09;;;;;;;0.00;0.00;;;;;;;14.86;73.96;100532.72;7353174;19;20041;-65
2023/07/17 01:21:38;;;;;;;0.03;0.03;;;;;;;14.86;74.32;100535.34;7354824;19;20089;-67
2023/07/17 01:24:04;;;;;;;0.10;0.10;;;;;;;14.87;74.10;100544.94;7355588;19;20086;-67
2023/07/17 01:26:30;;;;;;;0.05;0.05;;;;;;;14.87;74.44;100543.16;7353842;19;20073;-66
2023/07/17 01:28:55;;;;;;;0.00;0.00;;;;;;;14.88;73.93;100546.66;7353426;19;20014;-67
2023/07/17 01:31:21;;;;;;;0.00;0.00;;;;;;;14.88;73.86;100546.66;7353048;19;20042;-67
2023/07/17 01:33:46;;;;;;;0.10;0.10;;;;;;;14.90;73.62;100544.78;7351406;19;20002;-66
2023/07/17 01:36:11;;;;;;;0.10;0.10;;;;;;;14.89;73.43;100545.72;7349727;19;20886;-67
2023/07/17 01:38:37;;;;;;;0.10;0.10;;;;;;;14.90;73.75;100550.03;7354177;19;20003;-67
2023/07/17 01:41:02;;;;;;;0.10;0.10;;;;;;;14.88;73.76;100551.91;7353104;19;20010;-67
2023/07/17 01:43:28;;;;;;;0.05;0.05;;;;;;;14.89;73.76;100541.31;7360556;19;20223;-67
2023/07/17 01:45:53;;;;;;;0.00;0.00;;;;;;;14.86;74.07;100548.50;7358493;19;20638;-67
2023/07/17 01:48:19;;;;;;;0.10;0.10;;;;;;;14.90;74.04;100557.94;7360429;19;20742;-66
2023/07/17 01:50:45;;;;;;;0.08;0.08;;;;;;;14.91;73.92;100559.66;7359501;19;20027;-66
2023/07/17 01:53:10;;;;;;;0.10;0.10;;;;;;;14.90;74.19;100561.44;7361745;19;20596;-66
2023/07/17 01:55:36;;;;;;;0.10;0.10;;;;;;;14.91;73.93;100564.94;7362429;19;20010;-66
2023/07/17 01:58:02;;;;;;;0.10;0.10;;;;;;;14.92;73.94;100569.25;7352480;19;20031;-67
2023/07/17 02:00:27;;;;;;;0.10;0.10;;;;;;;14.79;74.03;100548.72;7357030;19;20010;-67
2023/07/17 02:02:52;;;;;;;0.10;0.10;;;;;;;14.92;73.93;100558.75;7359207;19;20002;-67
2023/07/17 02:05:18;;;;;;;0.10;0.10;;;;;;;14.93;73.96;100568.34;7357675;19;20029;-67
2023/07/17 02:07:43;;;;;;;0.00;0.00;;;;;;;14.92;73.66;100566.63;7357920;19;20071;-67
2023/07/17 02:10:10;;;;;;;0.00;0.00;;;;;;;14.91;73.96;100562.31;7355024;19;20653;-67
2023/07/17 02:12:35;;;;;;;0.10;0.10;;;;;;;14.90;74.07;100565.81;7358146;19;20014;-66
2023/07/17 02:15:01;;;;;;;0.10;0.10;;;;;;;14.86;73.77;100561.63;7358754;19;20053;-67
2023/07/17 02:17:26;;;;;;;0.10;0.10;;;;;;;14.85;74.12;100571.31;7355647;19;20679;-67
2023/07/17 02:19:52;;;;;;;0.10;0.10;;;;;;;14.83;74.34;100564.38;7359157;19;20014;-67
2023/07/17 02:22:17;;;;;;;0.00;0.00;;;;;;;14.80;74.32;100570.66;7358461;19;20682;-67
2023/07/17 02:24:43;;;;;;;0.10;0.10;;;;;;;14.78;74.32;100578.56;7357181;19;20010;-66
2023/07/17 02:27:08;;;;;;;0.00;0.00;;;;;;;14.77;74.59;100576.88;7357458;19;20086;-66
2023/07/17 02:29:34;;;;;;;0.10;0.10;;;;;;;14.75;74.73;100572.59;7357778;19;20007;-66
2023/07/17 02:31:59;;;;;;;0.10;0.10;;;;;;;14.71;74.49;100571.03;7356065;19;20093;-67
2023/07/17 02:34:25;;;;;;;0.00;0.00;;;;;;;14.71;74.50;100579.75;7360138;19;20352;-66
2023/07/17 02:36:52;;;;;;;0.10;0.10;;;;;;;14.73;74.63;100584.94;7354410;19;20010;-66
2023/07/17 02:39:17;;;;;;;0.00;0.00;;;;;;;14.70;74.63;100583.31;7354033;19;20368;-67
2023/07/17 02:41:43;;;;;;;0.10;0.10;;;;;;;14.71;74.46;100586.78;7357797;19;20074;-67
2023/07/17 02:44:08;;;;;;;0.08;0.08;;;;;;;14.71;74.83;100581.53;7355588;19;20006;-67
2023/07/17 02:46:34;;;;;;;0.10;0.10;;;;;;;14.69;74.76;100584.22;7358046;19;20024;-66
2023/07/17 02:48:59;;;;;;;0.00;0.00;;;;;;;14.70;75.21;100590.31;7356254;19;20029;-66
2023/07/17 02:51:24;;;;;;;0.00;0.00;;;;;;;14.70;75.21;100585.94;7354526;19;20078;-66
2023/07/17 02:53:50;;;;;;;0.10;0.10;;;;;;;14.71;75.19;100587.66;7358897;19;20042;-66
2023/07/17 02:56:15;;;;;;;0.10;0.10;;;;;;;14.49;75.29;100550.88;7359725;19;20546;-66
2023/07/17 02:58:42;;;;;;;0.10;0.10;;;;;;;14.70;75.06;100585.94;7348119;19;21618;-63
2023/07/17 03:01:08;;;;;;;0.10;0.10;;;;;;;14.74;75.15;100595.38;7360005;19;20018;-66
2023/07/17 03:03:34;;;;;;;0.00;0.00;;;;;;;14.74;74.96;100586.66;7354731;19;24602;-67
2023/07/17 03:05:59;;;;;;;0.00;0.00;;;;;;;14.75;75.04;100599.75;7358476;19;20014;-67
2023/07/17 03:08:25;;;;;;;0.10;0.10;;;;;;;14.77;75.17;100600.53;7357062;19;20405;-67
2023/07/17 03:10:50;;;;;;;0.05;0.05;;;;;;;14.41;74.91;100533.69;7356691;19;20391;-67
2023/07/17 03:13:16;;;;;;;0.10;0.10;;;;;;;14.82;74.78;100604.75;7355822;19;20038;-66
2023/07/17 03:15:42;;;;;;;0.10;0.10;;;;;;;14.83;74.47;100603.81;7354860;19;20010;-66
2023/07/17 03:18:07;;;;;;;0.10;0.10;;;;;;;14.85;74.71;100604.59;7358679;19;20006;-67
2023/07/17 03:20:34;;;;;;;0.03;0.03;;;;;;;14.87;74.66;100602.78;7337203;19;20014;-66
2023/07/17 03:22:59;;;;;;;0.05;0.05;;;;;;;14.89;74.73;100611.44;7359414;19;20010;-66
2023/07/17 03:25:25;;;;;;;0.10;0.10;;;;;;;14.81;74.48;100597.78;7355060;19;20102;-67
2023/07/17 03:27:50;;;;;;;0.10;0.10;;;;;;;14.92;74.55;100616.59;7358916;19;20053;-67
2023/07/17 03:30:16;;;;;;;0.10;0.10;;;;;;;14.93;74.49;100623.56;7356623;19;20078;-66
2023/07/17 03:32:41;;;;;;;0.00;0.00;;;;;;;14.94;74.53;100620.84;7357787;19;20014;-67
2023/07/17 03:35:07;;;;;;;0.10;0.10;;;;;;;14.84;74.66;100606.38;7354908;19;20025;-68
2023/07/17 03:37:32;;;;;;;0.10;0.10;;;;;;;14.96;74.71;100626.91;7357416;19;20401;-67
2023/07/17 03:39:58;;;;;;;0.10;0.10;;;;;;;14.96;74.41;100626.06;7355448;19;20496;-66
2023/07/17 03:42:23;;;;;;;0.08;0.08;;;;;;;14.98;74.45;100632.09;7356319;19;20013;-67
2023/07/17 03:44:49;;;;;;;0.10;0.10;;;;;;;14.99;74.02;100633.81;7356143;19;20733;-65
2023/07/17 03:47:14;;;;;;;0.10;0.10;;;;;;;14.99;74.22;100628.53;7352551;19;20759;-66
2023/07/17 03:49:39;;;;;;;0.10;0.10;;;;;;;15.01;73.83;100638.09;7354922;19;20114;-67
2023/07/17 03:52:05;;;;;;;0.00;0.00;;;;;;;15.02;74.07;100638.94;7355321;19;20014;-66
2023/07/17 03:54:31;;;;;;;0.10;0.10;;;;;;;14.99;74.51;100637.28;7359390;19;20023;-66
2023/07/17 03:56:56;;;;;;;0.10;0.10;;;;;;;15.02;73.73;100637.16;7355818;19;20070;-67
2023/07/17 03:59:23;;;;;;;0.10;0.10;;;;;;;14.98;74.59;100634.72;7355633;19;20017;-67
2023/07/17 04:01:49;;;;;;;0.10;0.10;;;;;;;15.04;74.13;100640.56;7355287;19;20025;-66
2023/07/17 04:04:15;;;;;;;0.10;0.10;;;;;;;15.05;74.05;100644.06;7352469;19;20659;-67
2023/07/17 04:06:40;;;;;;;0.00;0.00;;;;;;;15.03;74.01;100641.50;7354132;19;20006;-67
2023/07/17 04:09:06;;;;;;;0.00;0.00;;;;;;;15.06;74.13;100653.69;7357325;19;20014;-66
2023/07/17 04:11:31;;;;;;;0.08;0.08;;;;;;;15.05;74.18;100644.94;7354853;19;20102;-67
2023/07/17 04:13:56;;;;;;;0.00;0.00;;;;;;;15.05;74.05;100644.94;7355972;19;20357;-67
2023/07/17 04:16:25;;;;;;;0.10;0.10;;;;;;;15.06;73.99;100651.06;7354215;19;20025;-65
2023/07/17 04:18:51;;;;;;;0.00;0.00;;;;;;;15.07;74.29;100651.91;7354725;19;20492;-67
2023/07/17 04:21:16;;;;;;;0.10;0.10;;;;;;;15.06;74.07;100656.31;7354497;19;20006;-67
2023/07/17 04:23:41;;;;;;;0.10;0.10;;;;;;;15.06;73.81;100656.31;7356523;19;20073;-67
2023/07/17 04:26:07;;;;;;;0.10;0.10;;;;;;;15.06;74.03;100661.56;7353031;19;20014;-66
2023/07/17 04:28:32;;;;;;;0.10;0.10;;;;;;;15.06;73.41;100666.84;7349268;19;20006;-67
2023/07/17 04:31:02;;;;;;;0.10;0.10;;;;;;;15.05;74.01;100665.09;7355397;19;20033;-66
2023/07/17 04:33:28;;;;;;;0.10;0.10;;;;;;;15.04;73.89;100668.66;7353651;19;20035;-67
2023/07/17 04:35:54;;;;;;;0.10;0.10;;;;;;;15.02;73.53;100663.47;7357233;19;20010;-67
2023/07/17 04:38:19;;;;;;;0.10;0.10;;;;;;;14.97;73.21;100661.94;7349188;19;20887;-67
2023/07/17 04:40:44;;;;;;;0.10;0.10;;;;;;;15.02;73.51;100673.13;7357722;19;20014;-67
2023/07/17 04:43:10;;;;;;;0.10;0.10;;;;;;;15.02;73.61;100670.50;7353592;19;20097;-67
2023/07/17 04:45:41;;;;;;;0.10;0.10;;;;;;;15.05;73.41;100675.63;7356138;19;20011;-66
2023/07/17 04:48:06;;;;;;;0.00;0.00;;;;;;;14.96;73.94;100666.34;7351625;19;20018;-66
2023/07/17 04:50:32;;;;;;;0.10;0.10;;;;;;;15.02;73.59;100670.50;7356041;19;20409;-67
2023/07/17 04:52:58;;;;;;;0.10;0.10;;;;;;;15.01;73.70;100674.06;7352321;19;20469;-67
2023/07/17 04:55:23;;;;;;;0.05;0.05;;;;;;;15.01;73.76;100674.91;7357793;19;20025;-67
2023/07/17 04:57:49;;;;;;;0.10;0.10;;;;;;;14.93;74.08;100670.88;7349247;19;20011;-66
2023/07/17 05:00:15;;;;;;;0.10;0.10;;;;;;;15.01;74.08;100679.31;7355730;19;20383;-67
2023/07/17 05:02:40;;;;;;;0.10;0.10;;;;;;;15.00;73.94;100685.47;7350280;19;20034;-66
2023/07/17 05:05:06;;;;;;;0.05;0.05;;;;;;;15.00;73.42;100683.72;7356423;19;20577;-67
2023/07/17 05:07:31;;;;;;;0.10;0.10;;;;;;;15.00;74.02;100690.72;7354302;19;20026;-67
2023/07/17 05:09:57;;;;;;;0.10;0.10;;;;;;;14.99;73.52;100689.88;7353592;19;20014;-67
2023/07/17 05:12:22;;;;;;;0.10;0.10;;;;;;;14.99;73.62;100692.50;7353335;19;20007;-67
2023/07/17 05:14:48;;;;;;;0.05;0.05;;;;;;;15.00;73.73;100703.88;7352760;19;20580;-67
2023/07/17 05:17:13;;;;;;;0.10;0.10;;;;;;;14.98;73.76;100701.31;7356684;19;20228;-67
2023/07/17 05:19:38;;;;;;;0.10;0.10;;;;;;;14.99;73.62;100699.53;7360313;19;20435;-66
2023/07/17 05:22:04;;;;;;;0.10;0.10;;;;;;;14.96;73.79;100697.06;7360521;19;20042;-66
2023/07/17 05:24:29;;;;;;;0.08;0.08;;;;;;;15.00;73.95;100709.13;7362469;19;20014;-67
2023/07/17 05:26:54;;;;;;;0.10;0.10;;;;;;;14.96;73.67;100707.56;7361184;19;20046;-66
2023/07/17 05:29:20;;;;;;;0.10;0.10;;;;;;;15.01;73.49;100721.41;7359246;19;21031;-66
2023/07/17 05:31:46;;;;;;;0.10;0.10;;;;;;;15.04;73.51;100716.00;7361231;19;20027;-67
2023/07/17 05:34:11;;;;;;;0.10;0.10;;;;;;;15.04;73.82;100723.88;7359836;19;19999;-66
2023/07/17 05:36:36;;;;;;;0.00;0.00;;;;;;;15.07;73.56;100728.19;7361515;19;20773;-67
2023/07/17 05:39:03;;;;;;;0.10;0.10;;;;;;;15.07;73.40;100726.41;7359313;19;20336;-66
2023/07/17 05:41:28;;;;;;;0.10;0.10;;;;;;;15.07;73.67;100729.03;7361938;19;20018;-66
2023/07/17 05:43:53;;;;;;;0.10;0.10;;;;;;;15.00;73.28;100711.78;7357739;19;20034;-67
2023/07/17 05:46:19;;;;;;;0.10;0.10;;;;;;;15.11;73.55;100727.13;7358457;19;20889;-67
2023/07/17 05:48:44;;;;;;;0.10;0.10;;;;;;;15.13;73.49;100728.78;7356539;19;20014;-67
2023/07/17 05:51:10;;;;;;;0.10;0.10;;;;;;;15.15;73.65;100734.81;7360968;19;20034;-67
2023/07/17 05:53:35;;;;;;;0.10;0.10;;;;;;;15.17;73.67;100727.72;7358526;19;20027;-66
2023/07/17 05:56:01;;;;;;;0.10;0.10;;;;;;;15.22;73.59;100736.28;7360575;19;20929;-67
2023/07/17 05:58:26;;;;;;;0.20;0.20;;;;;;;15.24;73.51;100742.34;7354478;19;20549;-67
2023/07/17 06:00:51;;;;;;;0.10;0.10;;;;;;;15.27;73.79;100744.84;7359928;19;20013;-67
2023/07/17 06:03:17;;;;;;;0.00;0.00;;;;;;;15.30;73.34;100749.97;7354869;19;20025;-66
2023/07/17 06:05:43;;;;;;;0.10;0.10;;;;;;;15.34;73.62;100736.69;7358887;19;20010;-67
2023/07/17 06:08:08;;;;;;;0.10;0.10;;;;;;;15.37;73.56;100744.47;7356987;19;20014;-66
2023/07/17 06:10:34;;;;;;;0.10;0.10;;;;;;;15.40;73.02;100746.97;7355151;19;20014;-67
2023/07/17 06:13:00;;;;;;;0.10;0.10;;;;;;;15.42;73.21;100747.75;7359159;19;20029;-66
2023/07/17 06:15:26;;;;;;;0.10;0.10;;;;;;;15.45;73.09;100750.25;7358582;19;20006;-67
2023/07/17 06:17:52;;;;;;;0.10;0.10;;;;;;;15.45;72.70;100751.09;7357510;19;20914;-67
2023/07/17 06:20:17;;;;;;;0.10;0.10;;;;;;;15.30;73.02;100728.06;7356572;19;20015;-67
2023/07/17 06:22:43;;;;;;;0.10;0.10;;;;;;;15.47;72.61;100756.31;7358709;19;20061;-66
2023/07/17 06:25:09;;;;;;;0.08;0.08;;;;;;;15.48;73.05;100758.03;7357524;19;20018;-66
2023/07/17 06:27:34;;;;;;;0.10;0.10;;;;;;;15.48;73.12;100758.88;7356077;19;20043;-67
2023/07/17 06:30:00;;;;;;;0.10;0.10;;;;;;;15.51;73.24;100760.50;7356817;19;20018;-67
2023/07/17 06:32:26;;;;;;;0.10;0.10;;;;;;;15.54;73.18;100765.66;7357923;19;20086;-65
2023/07/17 06:34:51;;;;;;;0.10;0.10;;;;;;;15.57;73.00;100762.91;7357981;19;20011;-67
2023/07/17 06:37:17;;;;;;;0.00;0.00;;;;;;;15.60;72.81;100770.66;7353685;19;20588;-66
2023/07/17 06:39:42;;;;;;;0.10;0.10;;;;;;;15.62;72.66;100776.72;7357120;19;20768;-66
2023/07/17 06:42:08;;;;;;;0.10;0.10;;;;;;;15.65;72.42;100776.63;7333927;19;20026;-67
2023/07/17 06:44:34;;;;;;;0.10;0.10;;;;;;;15.70;72.61;100773.78;7358355;19;20584;-66
2023/07/17 06:47:00;;;;;;;0.10;0.10;;;;;;;15.73;72.73;100787.69;7356874;19;20018;-67
2023/07/17 06:49:25;;;;;;;0.10;0.10;;;;;;;15.76;72.70;100784.94;7359711;19;20006;-67
2023/07/17 06:51:51;;;;;;;0.00;0.00;;;;;;;15.80;72.63;100786.50;7357223;19;20359;-67
2023/07/17 06:54:16;;;;;;;0.10;0.10;;;;;;;15.85;72.59;100793.34;7357242;19;20112;-67
2023/07/17 06:56:42;;;;;;;0.00;0.00;;;;;;;15.87;72.57;100792.38;7355788;19;20011;-66
2023/07/17 06:59:07;;;;;;;0.10;0.10;;;;;;;15.90;72.27;100791.38;7355960;19;20010;-67
2023/07/17 07:01:32;;;;;;;0.10;0.10;;;;;;;15.81;72.29;100776.81;7352330;19;20868;-67
2023/07/17 07:03:58;;;;;;;0.10;0.10;;;;;;;15.95;72.32;100789.38;7356137;19;20038;-62
2023/07/17 07:06:23;;;;;;;0.10;0.10;;;;;;;15.98;71.91;100805.94;7354582;19;20014;-67
2023/07/17 07:08:49;;;;;;;0.10;0.10;;;;;;;16.00;71.96;100803.22;7353716;19;20478;-65
2023/07/17 07:11:14;;;;;;;0.10;0.10;;;;;;;16.04;72.08;100808.28;7351476;19;20011;-67
2023/07/17 07:13:42;;;;;;;0.10;0.10;;;;;;;16.09;71.69;100808.94;7352825;19;20102;-67
2023/07/17 07:16:08;;;;;;;0.00;0.00;;;;;;;16.13;71.60;100807.03;7352230;19;20024;-67
2023/07/17 07:18:33;;;;;;;0.10;0.10;;;;;;;16.18;72.00;100823.50;7355849;19;26825;-67
2023/07/17 07:20:59;;;;;;;0.10;0.10;;;;;;;16.23;71.95;100824.16;7351468;19;20014;-67
2023/07/17 07:23:24;;;;;;;0.10;0.10;;;;;;;16.29;71.13;100826.50;7356906;19;20010;-67
2023/07/17 07:25:50;;;;;;;0.10;0.10;;;;;;;16.35;71.23;100830.66;7355583;19;20014;-66
2023/07/17 07:28:15;;;;;;;0.10;0.10;;;;;;;16.40;71.17;100838.34;7356254;19;20007;-66
2023/07/17 07:30:41;;;;;;;0.00;0.00;;;;;;;16.39;70.90;100820.84;7351070;19;20015;-67
2023/07/17 07:33:06;;;;;;;0.10;0.10;;;;;;;16.38;71.02;100824.41;7352597;19;20014;-66
2023/07/17 07:35:31;;;;;;;0.10;0.10;;;;;;;16.53;70.95;100843.00;7354563;19;20006;-67
2023/07/17 07:37:57;;;;;;;0.10;0.10;;;;;;;16.57;70.87;100851.63;7353455;19;20010;-67
2023/07/17 07:40:23;;;;;;;0.10;0.10;;;;;;;16.61;70.49;100859.31;7354229;19;20557;-67
2023/07/17 07:42:48;;;;;;;0.10;0.10;;;;;;;16.65;70.53;100861.84;7356028;19;20018;-66
2023/07/17 07:45:16;;;;;;;0.10;0.10;;;;;;;16.70;70.07;100868.59;7356952;19;20012;-67
2023/07/17 07:47:42;;;;;;;0.10;0.10;;;;;;;16.70;70.15;100868.59;7357625;19;20017;-67
2023/07/17 07:50:10;;;;;;;0.10;0.10;;;;;;;16.73;69.76;100870.31;7356523;19;20547;-67
2023/07/17 07:52:36;;;;;;;0.10;0.10;;;;;;;16.74;69.65;100870.22;7353798;19;20041;-66
2023/07/17 07:55:01;;;;;;;0.10;0.10;;;;;;;16.75;69.21;100861.38;7338337;19;20018;-67
2023/07/17 07:57:27;;;;;;;0.10;0.10;;;;;;;16.74;69.25;100854.41;7343759;19;20017;-66
2023/07/17 07:59:52;;;;;;;0.10;0.10;;;;;;;16.76;69.35;100868.34;7352243;19;20014;-67
2023/07/17 08:02:18;;;;;;;0.10;0.10;;;;;;;16.78;69.56;100868.31;7354935;19;20042;-67
2023/07/17 08:04:44;;;;;;;0.10;0.10;;;;;;;16.82;69.94;100870.69;7349783;19;20312;-67
2023/07/17 08:07:10;;;;;;;0.10;0.10;;;;;;;16.86;69.72;100874.91;7356396;19;20454;-67
2023/07/17 08:09:35;;;;;;;0.00;0.00;;;;;;;16.92;69.40;100880.84;7349878;19;20018;-67
2023/07/17 08:12:01;;;;;;;0.10;0.10;;;;;;;16.97;69.11;100882.34;7353262;19;20002;-67
2023/07/17 08:14:26;;;;;;;0.10;0.10;;;;;;;17.00;69.24;100878.72;7351902;19;20015;-67
2023/07/17 08:16:52;;;;;;;0.10;0.10;;;;;;;17.02;69.22;100872.44;7356407;19;20030;-67
2023/07/17 08:19:19;;;;;;;0.10;0.10;;;;;;;17.19;68.62;100889.28;7352790;19;20010;-67
2023/07/17 08:21:44;;;;;;;0.10;0.10;;;;;;;17.15;68.71;100875.34;7354385;19;20489;-67
2023/07/17 08:24:10;;;;;;;0.10;0.10;;;;;;;17.26;68.67;100886.25;7354947;19;20011;-67
2023/07/17 08:26:38;;;;;;;0.10;0.10;;;;;;;17.31;68.31;100896.59;7351432;19;20018;-67
2023/07/17 08:29:04;;;;;;;0.00;0.00;;;;;;;17.34;68.28;100905.25;7354166;19;20090;-67
2023/07/17 08:31:31;;;;;;;0.10;0.10;;;;;;;17.41;68.42;100907.56;7354582;19;20018;-67
2023/07/17 08:33:56;;;;;;;;;;;;;;;17.54;69.64;100914.84;7354611;19;20011;-67
2023/07/17 08:36:22;;;;;;;0.10;0.10;;;;;;;17.56;68.17;100912.13;7350942;19;19937;-67
2023/07/17 08:38:47;;;;;;;0.00;0.00;;;;;;;17.61;68.15;100916.25;7353724;19;20819;-66
2023/07/17 08:41:16;;;;;;;0.10;0.10;;;;;;;17.73;67.34;100920.09;7353910;19;20029;-67
2023/07/17 08:43:42;;;;;;;0.10;0.10;;;;;;;17.80;67.34;100920.69;7355650;19;20441;-67
2023/07/17 08:46:09;;;;;;;0.00;0.00;;;;;;;17.87;67.16;100917.63;7348605;19;20055;-62
2023/07/17 08:48:34;;;;;;;0.10;0.10;;;;;;;17.92;67.30;100927.97;7353788;19;20027;-67
2023/07/17 08:51:00;;;;;;;0.10;0.10;;;;;;;17.98;67.19;100932.94;7356084;19;20075;-67
2023/07/17 08:53:26;;;;;;;0.10;0.10;;;;;;;18.07;67.67;100939.56;7368017;19;20013;-67
2023/07/17 08:55:56;;;;;;;0.10;0.10;;;;;;;18.21;67.40;100936.25;7369213;19;20006;-67
2023/07/17 08:58:26;;;;;;;0.10;0.10;;;;;;;18.31;67.68;100938.34;7369219;19;20007;-67
2023/07/17 09:00:51;;;;;;;0.00;0.00;;;;;;;18.37;67.09;100934.53;7368942;19;20026;-67
2023/07/17 09:03:18;;;;;;;0.00;0.00;;;;;;;18.54;66.80;100944.22;7360964;19;20049;-67
2023/07/17 09:05:44;;;;;;;0.10;0.10;;;;;;;18.67;66.67;100945.31;7361529;19;20029;-67
2023/07/17 09:08:11;;;;;;;0.00;0.00;;;;;;;18.78;66.32;100953.56;7368078;19;20729;-67
2023/07/17 09:10:36;;;;;;;0.10;0.10;;;;;;;18.90;66.13;100950.25;7366863;19;20014;-67
2023/07/17 09:13:03;;;;;;;0.10;0.10;;;;;;;18.95;65.62;100933.28;7369870;19;20017;-67
2023/07/17 09:15:29;;;;;;;0.10;0.10;;;;;;;19.14;65.43;100947.22;7369044;19;20022;-67
2023/07/17 09:17:55;;;;;;;0.10;0.10;;;;;;;19.22;65.31;100952.97;7367681;19;20030;-67
2023/07/17 09:20:21;;;;;;;0.10;0.10;;;;;;;19.31;65.19;100957.78;7367644;19;20492;-67
2023/07/17 09:22:47;;;;;;;0.10;0.10;;;;;;;19.42;64.42;100959.81;7368646;19;20745;-67
2023/07/17 09:25:14;;;;;;;0.10;0.10;;;;;;;19.50;64.00;100964.69;7366891;19;20010;-67
2023/07/17 09:27:47;;;;;;;0.10;0.10;;;;;;;19.62;64.75;100962.25;7368684;19;20372;-66
2023/07/17 09:30:15;;;;;;;0.10;0.10;;;;;;;19.65;63.26;100969.16;7364533;19;20023;-67
2023/07/17 09:32:41;;;;;;;0.00;0.00;;;;;;;19.70;63.43;100961.81;7367076;19;20023;-67
2023/07/17 09:35:08;;;;;;;0.10;0.10;;;;;;;19.79;63.66;100969.22;7366606;19;20070;-67
2023/07/17 09:37:35;;;;;;;0.10;0.10;;;;;;;19.94;63.82;100964.84;7367471;19;20014;-67
2023/07/17 09:40:07;;;;;;;0.08;0.08;;;;;;;20.13;62.89;100960.19;7367198;19;20007;-67
2023/07/17 09:42:34;;;;;;;0.10;0.10;;;;;;;20.30;62.08;100964.50;7367356;19;20013;-67
2023/07/17 09:45:00;;;;;;;0.10;0.10;;;;;;;20.36;61.75;100952.66;7368712;19;20039;-65
2023/07/17 09:47:26;;;;;;;0.10;0.10;;;;;;;20.62;61.48;100969.72;7369058;19;20014;-67
2023/07/17 09:49:54;;;;;;;0.10;0.10;;;;;;;20.75;61.05;100970.69;7366970;19;20021;-67
2023/07/17 09:52:19;;;;;;;0.00;0.00;;;;;;;20.82;60.83;100972.00;7368358;19;20022;-67
2023/07/17 09:54:48;;;;;;;0.10;0.10;;;;;;;20.87;59.96;100969.94;7365726;19;20022;-67
2023/07/17 09:57:25;;;;;;;0.08;0.08;;;;;;;20.97;61.28;100979.03;7367335;19;20057;-67
2023/07/17 09:59:54;;;;;;;0.10;0.10;;;;;;;20.93;58.83;100980.19;7365193;19;20014;-67
2023/07/17 10:02:23;;;;;;;0.10;0.10;;;;;;;20.93;59.53;100982.84;7363961;19;20954;-64
2023/07/17 10:04:53;;;;;;;0.10;0.10;;;;;;;20.93;59.14;100990.81;7359348;19;20029;-66
2023/07/17 10:07:19;;;;;;;0.05;0.05;;;;;;;20.90;59.21;100996.28;7360105;19;20006;-67
2023/07/17 10:09:48;;;;;;;0.00;0.00;;;;;;;20.97;59.17;100986.16;7357631;19;20053;-63
2023/07/17 10:12:15;;;;;;;0.10;0.10;;;;;;;20.99;58.74;100992.22;7360219;19;20016;-66
2023/07/17 10:14:42;;;;;;;;;;;;;;;21.18;63.12;101005.19;7359233;19;20034;-67
2023/07/17 10:17:23;;;;;;;0.10;0.10;;;;;;;21.23;60.29;101003.13;7359293;19;20002;-68
2023/07/17 10:19:49;;;;;;;0.10;0.10;;;;;;;21.18;57.71;100994.56;7359143;19;20123;-67
2023/07/17 10:22:15;;;;;;;0.10;0.10;;;;;;;21.22;57.22;101007.56;7360471;19;20896;-67
2023/07/17 10:24:41;;;;;;;0.05;0.05;;;;;;;21.23;57.43;101008.44;7359348;19;20018;-67
2023/07/17 10:27:06;;;;;;;0.00;0.00;;;;;;;21.08;57.54;100988.13;7361244;19;20875;-67
2023/07/17 10:29:41;;;;;;;0.10;0.10;;;;;;;21.22;58.92;101012.88;7357856;19;20674;-67
2023/07/17 10:32:14;;;;;;;0.10;0.10;;;;;;;21.16;59.45;101015.06;7354758;19;20034;-67
2023/07/17 10:34:52;;;;;;;0.10;0.10;;;;;;;21.08;59.71;101009.38;7360286;19;20003;-67
2023/07/17 10:37:38;;;;;;;0.10;0.10;;;;;;;20.98;58.82;101025.91;7357773;19;20014;-67
2023/07/17 10:40:07;;;;;;;0.10;0.10;;;;;;;21.04;59.65;101021.16;7357138;19;20014;-67
2023/07/17 10:42:33;;;;;;;0.00;0.00;;;;;;;21.09;58.63;101019.06;7356610;19;20015;-67
2023/07/17 10:45:09;;;;;;;0.00;0.00;;;;;;;21.31;60.72;101010.66;7360539;19;20046;-68
2023/07/17 10:47:35;;;;;;;0.10;0.10;;;;;;;21.56;60.35;101020.59;7360497;19;20043;-67
2023/07/17 10:50:04;;;;;;;0.10;0.10;;;;;;;21.97;60.06;101034.72;7356823;19;20010;-67
2023/07/17 10:52:34;;;;;;;0.10;0.10;;;;;;;22.40;59.99;101033.72;7359214;19;20739;-67
2023/07/17 10:55:04;;;;;;;0.10;0.10;;;;;;;22.85;58.77;101027.09;7355337;19;20021;-67
2023/07/17 10:57:30;;;;;;;0.10;0.10;;;;;;;23.23;55.86;101020.94;7359367;19;20011;-68
2023/07/17 10:59:56;;;;;;;0.10;0.10;;;;;;;23.63;55.81;101020.78;7357150;19;20746;-67
2023/07/17 11:02:26;;;;;;;0.00;0.00;;;;;;;24.20;55.63;101037.00;7356736;19;20475;-67
2023/07/17 11:05:01;;;;;;;0.10;0.10;;;;;;;24.65;55.33;101033.69;7357199;19;20043;-67
2023/07/17 11:07:30;;;;;;;0.03;0.03;;;;;;;24.79;52.57;101010.28;7358680;19;20025;-68
2023/07/17 11:09:56;;;;;;;0.00;0.00;;;;;;;25.21;51.27;101031.13;7358104;19;20503;-68
2023/07/17 11:12:25;;;;;;;0.10;0.10;;;;;;;25.64;52.28;101052.59;7358810;19;20010;-68
2023/07/17 11:14:54;;;;;;;0.00;0.00;;;;;;;25.99;51.39;101047.09;7357125;19;20756;-68
2023/07/17 11:17:20;;;;;;;0.00;0.00;;;;;;;26.23;48.73;101046.06;7357239;19;20019;-67
2023/07/17 11:19:45;;;;;;;0.10;0.10;;;;;;;26.52;46.62;101047.19;7358583;19;20510;-68
2023/07/17 11:22:12;;;;;;;0.10;0.10;;;;;;;26.63;46.40;101031.03;7357088;19;20022;-68